createdAt,value
2019-02-28T00:02:22.442Z,1.80
2019-02-28T00:04:50.905Z,1.80
2019-02-28T00:07:20.137Z,1.80
2019-02-28T00:09:50.013Z,2.10
2019-02-28T00:12:19.035Z,2.10
2019-02-28T00:14:48.616Z,2.10
2019-02-28T00:17:21.946Z,2.00
2019-02-28T00:19:55.326Z,2.00
2019-02-28T00:22:24.537Z,1.90
2019-02-28T00:24:55.218Z,1.70
2019-02-28T00:27:26.590Z,1.40
2019-02-28T00:29:55.825Z,1.30
2019-02-28T00:32:25.487Z,1.20
2019-02-28T00:34:55.402Z,1.20
2019-02-28T00:37:25.944Z,1.30
2019-02-28T00:39:55.993Z,1.30
2019-02-28T00:42:26.412Z,1.30
2019-02-28T00:44:56.297Z,1.30
2019-02-28T00:47:25.491Z,1.40
2019-02-28T00:49:56.690Z,1.60
2019-02-28T00:52:26.104Z,1.70
2019-02-28T00:54:56.107Z,1.60
2019-02-28T00:57:25.725Z,1.70
2019-02-28T00:59:57.090Z,1.70
2019-02-28T01:02:27.250Z,1.80
2019-02-28T01:04:56.833Z,1.80
2019-02-28T01:07:26.917Z,1.70
2019-02-28T01:09:56.385Z,1.70
2019-02-28T01:12:26.309Z,1.60
2019-02-28T01:14:56.357Z,1.40
2019-02-28T01:17:26.745Z,1.20
2019-02-28T01:19:57.673Z,1.00
2019-02-28T01:22:28.087Z,0.80
2019-02-28T01:24:57.353Z,0.70
2019-02-28T01:27:27.295Z,0.60
2019-02-28T01:29:56.312Z,0.70
2019-02-28T01:32:25.212Z,0.80
2019-02-28T01:34:54.473Z,1.00
2019-02-28T01:37:23.455Z,1.00
2019-02-28T01:39:54.243Z,1.00
2019-02-28T01:42:26.049Z,0.90
2019-02-28T01:44:55.863Z,0.80
2019-02-28T01:47:25.272Z,0.70
2019-02-28T01:49:57.769Z,0.70
2019-02-28T01:52:25.940Z,0.80
2019-02-28T01:54:59.172Z,0.90
2019-02-28T01:57:29.805Z,1.00
2019-02-28T01:59:59.421Z,1.00
2019-02-28T02:02:30.373Z,0.90
2019-02-28T02:05:00.104Z,1.00
2019-02-28T02:07:30.509Z,0.90
2019-02-28T02:10:04.218Z,0.90
2019-02-28T02:12:34.113Z,0.90
2019-02-28T02:15:06.993Z,0.90
2019-02-28T02:17:37.465Z,0.90
2019-02-28T02:20:08.428Z,0.90
2019-02-28T02:22:40.625Z,0.80
2019-02-28T02:25:10.685Z,0.70
2019-02-28T02:27:39.500Z,0.60
2019-02-28T02:30:15.915Z,0.50
2019-02-28T02:32:46.153Z,0.30
2019-02-28T02:35:16.178Z,0.00
2019-02-28T02:37:46.459Z,-0.20
2019-02-28T02:40:16.717Z,-0.10
2019-02-28T02:42:48.898Z,0.00
2019-02-28T02:45:17.577Z,0.00
2019-02-28T02:47:48.595Z,-0.10
2019-02-28T02:50:18.860Z,0.00
2019-02-28T02:52:49.800Z,0.40
2019-02-28T02:55:19.066Z,0.60
2019-02-28T02:57:51.737Z,0.60
2019-02-28T03:00:23.051Z,0.70
2019-02-28T03:02:52.344Z,0.80
2019-02-28T03:05:26.472Z,1.10
2019-02-28T03:07:59.952Z,1.00
2019-02-28T03:10:29.173Z,0.90
2019-02-28T03:12:58.236Z,0.70
2019-02-28T03:15:27.606Z,0.60
2019-02-28T03:17:58.349Z,0.30
2019-02-28T03:20:28.953Z,0.10
2019-02-28T03:23:02.157Z,0.00
2019-02-28T03:25:30.599Z,0.00
2019-02-28T03:28:01.013Z,-0.20
2019-02-28T03:30:33.168Z,-0.30
2019-02-28T03:33:02.380Z,-0.30
2019-02-28T03:35:43.315Z,-0.50
2019-02-28T03:38:10.657Z,-0.60
2019-02-28T03:40:40.278Z,-0.50
2019-02-28T03:43:10.210Z,-0.50
2019-02-28T03:45:40.426Z,-0.30
2019-02-28T03:48:12.087Z,-0.20
2019-02-28T03:50:44.005Z,-0.30
2019-02-28T03:53:19.619Z,-0.20
2019-02-28T03:55:46.164Z,-0.20
2019-02-28T03:58:17.133Z,-0.30
2019-02-28T04:00:46.810Z,-0.20
2019-02-28T04:03:16.178Z,-0.20
2019-02-28T04:05:45.339Z,-0.20
2019-02-28T04:08:16.625Z,-0.40
2019-02-28T04:10:46.317Z,-0.50
2019-02-28T04:13:19.280Z,-0.60
2019-02-28T04:16:07.570Z,-0.70
2019-02-28T04:18:21.003Z,-0.80
2019-02-28T04:20:50.750Z,-1.00
2019-02-28T04:23:21.518Z,-1.10
2019-02-28T04:25:51.572Z,-0.90
2019-02-28T04:28:21.270Z,-0.70
2019-02-28T04:30:52.076Z,-0.70
2019-02-28T04:33:28.607Z,-0.70
2019-02-28T04:36:00.631Z,-0.80
2019-02-28T04:38:33.073Z,-0.80
2019-02-28T04:41:07.527Z,-0.80
2019-02-28T04:43:37.522Z,-0.80
2019-02-28T04:46:08.663Z,-0.70
2019-02-28T04:48:38.106Z,-0.40
2019-02-28T04:51:08.137Z,-0.10
2019-02-28T04:53:40.784Z,-0.10
2019-02-28T04:56:12.435Z,0.10
2019-02-28T04:58:47.081Z,0.10
2019-02-28T05:01:19.321Z,0.10
2019-02-28T05:03:59.203Z,0.10
2019-02-28T05:06:30.621Z,0.00
2019-02-28T05:08:59.613Z,-0.10
2019-02-28T05:11:31.725Z,-0.20
2019-02-28T05:14:03.258Z,-0.40
2019-02-28T05:16:52.268Z,-0.60
2019-02-28T05:19:21.472Z,-0.60
2019-02-28T05:21:53.562Z,-0.70
2019-02-28T05:24:22.693Z,-0.70
2019-02-28T05:26:52.387Z,-0.60
2019-02-28T05:29:34.115Z,-0.60
2019-02-28T05:32:04.372Z,-0.60
2019-02-28T05:34:34.048Z,-0.60
2019-02-28T05:37:03.475Z,-0.60
2019-02-28T05:39:34.449Z,-0.30
2019-02-28T05:42:04.623Z,-0.10
2019-02-28T05:44:34.091Z,0.20
2019-02-28T05:47:04.549Z,0.40
2019-02-28T05:49:34.611Z,0.60
2019-02-28T05:52:03.650Z,0.60
2019-02-28T05:54:32.958Z,0.60
2019-02-28T05:57:08.048Z,0.50
2019-02-28T05:59:38.320Z,0.40
2019-02-28T06:02:08.874Z,0.30
2019-02-28T06:04:39.259Z,0.20
2019-02-28T06:07:09.557Z,0.10
2019-02-28T06:09:39.251Z,0.10
2019-02-28T06:12:10.192Z,0.10
2019-02-28T06:14:40.876Z,0.20
2019-02-28T06:17:09.828Z,0.30
2019-02-28T06:19:40.227Z,0.40
2019-02-28T06:22:11.910Z,0.50
2019-02-28T06:24:44.879Z,0.70
2019-02-28T06:27:13.858Z,0.90
2019-02-28T06:29:43.119Z,1.10
2019-02-28T06:32:13.792Z,1.20
2019-02-28T06:34:43.245Z,1.30
2019-02-28T06:37:12.618Z,1.50
2019-02-28T06:39:41.611Z,1.70
2019-02-28T06:42:13.295Z,2.00
2019-02-28T06:44:44.094Z,2.40
2019-02-28T06:47:14.806Z,2.50
2019-02-28T06:49:43.945Z,2.70
2019-02-28T06:52:13.225Z,2.90
2019-02-28T06:54:42.095Z,3.30
2019-02-28T06:57:12.228Z,3.60
2019-02-28T06:59:40.736Z,3.90
2019-02-28T07:02:11.583Z,4.10
2019-02-28T07:04:45.508Z,4.00
2019-02-28T07:07:17.128Z,4.20
2019-02-28T07:09:47.785Z,4.50
2019-02-28T07:12:17.041Z,4.60
2019-02-28T07:14:49.282Z,4.70
2019-02-28T07:17:18.456Z,4.90
2019-02-28T07:19:49.528Z,4.90
2019-02-28T07:22:20.727Z,4.80
2019-02-28T07:24:52.951Z,5.10
2019-02-28T07:27:23.381Z,4.90
2019-02-28T07:29:54.963Z,5.50
2019-02-28T07:32:26.239Z,5.80
2019-02-28T07:34:58.224Z,6.10
2019-02-28T07:37:29.211Z,6.10
2019-02-28T07:39:58.145Z,6.10
2019-02-28T07:42:28.270Z,6.50
2019-02-28T07:45:00.677Z,6.80
2019-02-28T07:47:29.945Z,7.00
2019-02-28T07:49:59.996Z,7.20
2019-02-28T07:52:33.465Z,7.70
2019-02-28T07:55:01.081Z,7.90
2019-02-28T07:57:31.772Z,8.10
2019-02-28T08:00:02.009Z,8.50
2019-02-28T08:02:35.628Z,8.80
2019-02-28T08:05:07.035Z,9.30
2019-02-28T08:07:36.635Z,9.60
2019-02-28T08:10:09.590Z,9.80
2019-02-28T08:12:40.696Z,10.20
2019-02-28T08:15:21.075Z,10.50
2019-02-28T08:17:46.918Z,11.20
2019-02-28T08:20:18.400Z,11.80
2019-02-28T08:22:51.018Z,12.10
2019-02-28T08:25:20.660Z,12.40
2019-02-28T08:27:51.004Z,12.60
2019-02-28T08:30:23.203Z,12.90
2019-02-28T08:32:53.521Z,13.20
2019-02-28T08:35:22.888Z,13.30
2019-02-28T08:37:57.106Z,13.50
2019-02-28T08:40:26.739Z,13.60
2019-02-28T08:42:57.959Z,13.70
2019-02-28T08:45:32.590Z,14.10
2019-02-28T08:47:59.504Z,14.30
2019-02-28T08:50:28.179Z,14.60
2019-02-28T08:52:58.386Z,14.80
2019-02-28T08:55:29.256Z,14.80
2019-02-28T08:58:05.292Z,14.90
2019-02-28T09:00:33.370Z,14.80
2019-02-28T09:03:03.414Z,15.10
2019-02-28T09:05:35.103Z,15.50
2019-02-28T09:08:04.396Z,15.80
2019-02-28T09:10:33.832Z,15.90
2019-02-28T09:13:07.691Z,16.10
2019-02-28T09:15:33.873Z,16.10
2019-02-28T09:18:03.758Z,16.00
2019-02-28T09:20:34.326Z,16.40
2019-02-28T09:23:06.260Z,16.60
2019-02-28T09:25:36.186Z,16.90
2019-02-28T09:28:06.174Z,16.90
2019-02-28T09:30:56.280Z,16.70
2019-02-28T09:33:27.301Z,16.90
2019-02-28T09:35:56.992Z,17.40
2019-02-28T09:38:27.754Z,17.40
2019-02-28T09:40:57.576Z,17.20
2019-02-28T09:43:29.254Z,17.10
2019-02-28T09:45:59.311Z,16.60
2019-02-28T09:48:27.856Z,16.70
2019-02-28T09:50:59.181Z,16.60
2019-02-28T09:53:27.820Z,16.80
2019-02-28T09:55:57.563Z,16.80
2019-02-28T09:58:29.364Z,16.90
2019-02-28T10:01:01.439Z,17.10
2019-02-28T10:03:30.717Z,17.40
2019-02-28T10:06:01.412Z,17.50
2019-02-28T10:08:33.534Z,17.70
2019-02-28T10:11:05.337Z,18.00
2019-02-28T10:13:36.919Z,18.30
2019-02-28T10:16:08.336Z,18.20
2019-02-28T10:18:38.988Z,18.30
2019-02-28T10:21:09.093Z,18.10
2019-02-28T10:23:38.673Z,18.30
2019-02-28T10:26:08.948Z,17.90
2019-02-28T10:28:39.853Z,18.20
2019-02-28T10:31:10.346Z,18.80
2019-02-28T10:37:04.344Z,18.20
2019-02-28T10:39:36.932Z,17.90
2019-02-28T10:42:10.986Z,18.40
2019-02-28T10:44:44.184Z,18.70
2019-02-28T10:47:21.926Z,18.50
2019-02-28T10:52:52.273Z,18.90
2019-02-28T10:55:22.623Z,18.60
2019-02-28T10:57:54.863Z,18.60
2019-02-28T11:00:32.570Z,18.40
2019-02-28T11:03:05.039Z,18.30
2019-02-28T11:05:37.391Z,18.30
2019-02-28T11:08:09.755Z,18.30
2019-02-28T11:10:41.772Z,18.10
2019-02-28T11:13:20.170Z,18.00
2019-02-28T11:15:54.147Z,18.10
2019-02-28T11:18:28.306Z,18.40
2019-02-28T11:21:01.318Z,18.20
2019-02-28T11:23:34.451Z,18.90
2019-02-28T11:26:09.604Z,18.60
2019-02-28T11:28:41.526Z,18.80
2019-02-28T11:31:16.371Z,19.20
2019-02-28T11:33:45.614Z,19.50
2019-02-28T11:36:18.371Z,19.70
2019-02-28T11:38:52.505Z,19.30
2019-02-28T11:41:34.784Z,19.30
2019-02-28T11:44:04.669Z,19.40
2019-02-28T11:46:48.896Z,19.30
2019-02-28T11:50:21.888Z,19.50
2019-02-28T11:53:04.950Z,20.00
2019-02-28T11:55:39.048Z,20.20
2019-02-28T11:58:18.037Z,20.40
2019-02-28T12:00:52.389Z,20.10
2019-02-28T12:03:31.924Z,20.10
2019-02-28T12:06:03.456Z,20.40
2019-02-28T12:08:41.471Z,20.30
2019-02-28T12:11:12.776Z,19.90
2019-02-28T12:13:47.184Z,19.40
2019-02-28T12:16:20.269Z,19.60
2019-02-28T12:19:00.608Z,19.90
2019-02-28T12:21:37.961Z,19.50
2019-02-28T12:24:14.114Z,19.90
2019-02-28T12:26:52.581Z,20.40
2019-02-28T12:29:37.742Z,21.00
2019-02-28T12:32:14.123Z,21.10
2019-02-28T12:34:51.963Z,20.70
2019-02-28T12:37:29.152Z,20.60
2019-02-28T12:40:14.468Z,20.80
2019-02-28T12:42:50.145Z,20.60
2019-02-28T12:45:41.296Z,20.60
2019-02-28T12:48:24.574Z,20.40
2019-02-28T12:51:02.276Z,20.70
2019-02-28T12:53:36.993Z,20.40
2019-02-28T12:56:16.051Z,20.30
2019-02-28T12:59:10.206Z,20.40
2019-02-28T13:02:08.473Z,20.20
2019-02-28T13:04:48.830Z,20.50
2019-02-28T13:07:30.512Z,20.70
2019-02-28T13:10:28.126Z,20.60
2019-02-28T13:13:46.747Z,20.60
2019-02-28T13:16:26.381Z,20.40
2019-02-28T13:19:10.093Z,20.30
2019-02-28T13:21:52.351Z,20.00
2019-02-28T13:24:28.683Z,20.10
2019-02-28T13:27:09.823Z,20.00
2019-02-28T13:30:05.492Z,19.80
2019-02-28T13:32:51.249Z,20.20
2019-02-28T13:35:58.448Z,20.50
2019-02-28T13:38:43.725Z,20.50
2019-02-28T13:41:30.359Z,20.00
2019-02-28T13:44:14.631Z,19.60
2019-02-28T13:46:53.625Z,19.70
2019-02-28T13:49:38.512Z,19.70
2019-02-28T13:55:22.848Z,19.50
2019-02-28T13:58:17.766Z,20.00
2019-02-28T14:00:56.183Z,20.40
2019-02-28T14:03:47.475Z,20.00
2019-02-28T14:07:01.786Z,19.60
2019-02-28T14:09:49.457Z,19.10
2019-02-28T14:12:58.222Z,19.20
2019-02-28T14:15:52.708Z,19.10
2019-02-28T14:18:24.493Z,19.00
2019-02-28T14:24:34.836Z,18.90
2019-02-28T14:27:13.790Z,18.90
2019-02-28T14:29:53.138Z,19.00
2019-02-28T14:32:58.843Z,18.80
2019-02-28T14:35:56.954Z,18.60
2019-02-28T14:38:32.832Z,18.50
2019-02-28T14:41:38.509Z,18.40
2019-02-28T14:44:23.477Z,18.60
2019-02-28T14:47:07.659Z,18.90
2019-02-28T14:49:47.951Z,19.00
2019-02-28T14:52:41.728Z,19.40
2019-02-28T14:55:24.215Z,19.80
2019-02-28T14:58:03.439Z,20.10
2019-02-28T15:00:54.856Z,20.00
2019-02-28T15:03:38.381Z,20.40
2019-02-28T15:06:35.600Z,20.50
2019-02-28T15:12:30.269Z,20.30
2019-02-28T15:15:07.400Z,20.30
2019-02-28T15:18:14.905Z,20.40
2019-02-28T15:20:53.399Z,20.40
2019-02-28T15:23:38.036Z,19.90
2019-02-28T15:26:20.395Z,20.00
2019-02-28T15:29:15.569Z,20.10
2019-02-28T15:32:00.546Z,19.90
2019-02-28T15:34:43.789Z,19.70
2019-02-28T15:40:33.921Z,18.10
2019-02-28T15:43:41.432Z,17.30
2019-02-28T15:46:27.814Z,17.00
2019-02-28T15:49:14.166Z,16.70
2019-02-28T15:51:52.330Z,16.40
2019-02-28T15:55:02.976Z,16.20
2019-02-28T15:58:02.634Z,16.00
2019-02-28T16:00:53.605Z,15.90
2019-02-28T16:03:48.416Z,15.80
2019-02-28T16:06:32.762Z,15.70
2019-02-28T16:09:13.070Z,15.60
2019-02-28T16:11:59.076Z,15.50
2019-02-28T16:14:38.995Z,15.40
2019-02-28T16:17:19.940Z,15.30
2019-02-28T16:19:59.047Z,15.20
2019-02-28T16:22:37.508Z,15.10
2019-02-28T16:25:30.105Z,15.30
2019-02-28T16:28:07.807Z,15.20
2019-02-28T16:30:53.204Z,15.10
2019-02-28T16:33:32.948Z,15.00
2019-02-28T16:36:16.670Z,15.00
2019-02-28T16:38:56.598Z,15.10
2019-02-28T16:41:51.340Z,14.90
2019-02-28T16:44:32.807Z,14.80
2019-02-28T16:47:14.147Z,14.60
2019-02-28T16:50:18.769Z,14.50
2019-02-28T16:52:57.340Z,14.30
2019-02-28T16:55:40.896Z,14.10
2019-02-28T16:58:21.906Z,13.90
2019-02-28T17:01:17.523Z,13.80
2019-02-28T17:04:01.928Z,13.70
2019-02-28T17:06:52.787Z,13.60
2019-02-28T17:09:43.040Z,13.50
2019-02-28T17:12:59.519Z,13.40
2019-02-28T17:16:37.082Z,13.30
2019-02-28T17:19:23.637Z,13.30
2019-02-28T17:21:58.136Z,13.20
2019-02-28T17:24:33.454Z,13.10
2019-02-28T17:27:21.842Z,13.10
2019-02-28T17:30:20.287Z,13.10
2019-02-28T17:33:12.359Z,13.00
2019-02-28T17:35:51.617Z,13.00
2019-02-28T17:38:38.073Z,12.80
2019-02-28T17:41:21.663Z,12.80
2019-02-28T17:45:15.580Z,12.70
2019-02-28T17:48:54.364Z,12.60
2019-02-28T17:52:12.274Z,12.40
2019-02-28T17:55:42.297Z,12.40
2019-02-28T17:59:46.663Z,12.40
2019-02-28T18:04:03.692Z,12.40
2019-02-28T18:07:38.742Z,12.40
2019-02-28T18:11:16.230Z,12.30
2019-02-28T18:14:47.427Z,12.30
2019-02-28T18:18:41.550Z,12.20
2019-02-28T18:22:15.968Z,12.20
2019-02-28T18:26:11.152Z,12.00
2019-02-28T18:29:33.650Z,11.40
2019-02-28T18:32:24.202Z,11.00
2019-02-28T18:35:29.249Z,10.80
2019-02-28T18:38:07.454Z,10.80
2019-02-28T18:40:54.805Z,10.80
2019-02-28T18:44:05.207Z,10.60
2019-02-28T18:47:35.905Z,10.40
2019-02-28T18:53:47.355Z,9.80
2019-02-28T18:56:45.400Z,9.70
2019-02-28T18:59:43.886Z,9.70
2019-02-28T19:02:41.061Z,9.50
2019-02-28T19:05:37.986Z,9.50
2019-02-28T19:08:50.653Z,9.30
2019-02-28T19:11:46.634Z,9.10
2019-02-28T19:14:57.257Z,9.10
2019-02-28T19:17:52.650Z,9.70
2019-02-28T19:20:57.309Z,10.20
2019-02-28T19:23:33.008Z,10.20
2019-02-28T19:26:27.871Z,9.60
2019-02-28T19:29:10.115Z,9.30
2019-02-28T19:31:53.482Z,8.90
2019-02-28T19:34:39.334Z,8.70
2019-02-28T19:37:14.264Z,8.50
2019-02-28T19:40:09.473Z,8.30
2019-02-28T19:43:07.014Z,8.20
2019-02-28T19:46:37.316Z,8.20
2019-02-28T19:49:37.069Z,8.20
2019-02-28T19:52:18.448Z,8.30
2019-02-28T19:55:03.376Z,8.10
2019-02-28T20:03:55.850Z,8.00
2019-02-28T20:06:51.834Z,8.20
2019-02-28T20:09:41.734Z,8.40
2019-02-28T20:12:34.260Z,8.30
2019-02-28T20:15:22.603Z,8.00
2019-02-28T20:18:10.535Z,7.70
2019-02-28T20:21:10.140Z,7.40
2019-02-28T20:24:12.028Z,7.10
2019-02-28T20:27:12.936Z,6.80
2019-02-28T20:30:28.872Z,6.70
2019-02-28T20:33:36.161Z,6.60
2019-02-28T20:36:13.752Z,6.70
2019-02-28T20:39:17.319Z,7.00
2019-02-28T20:42:33.822Z,7.00
2019-02-28T20:45:15.602Z,6.90
2019-02-28T20:48:08.856Z,6.70
2019-02-28T20:51:04.979Z,6.50
2019-02-28T20:53:58.725Z,6.50
2019-02-28T20:57:22.307Z,6.40
2019-02-28T21:00:04.537Z,6.30
2019-02-28T21:03:16.025Z,6.20
2019-02-28T21:06:03.087Z,6.10
2019-02-28T21:08:49.910Z,6.20
2019-02-28T21:12:19.369Z,6.40
2019-02-28T21:15:09.501Z,6.80
2019-02-28T21:18:23.525Z,6.90
2019-02-28T21:21:11.082Z,7.00
2019-02-28T21:23:55.728Z,7.00
2019-02-28T21:27:04.012Z,7.10
2019-02-28T21:29:51.174Z,7.50
2019-02-28T21:32:37.871Z,7.40
2019-02-28T21:35:15.923Z,7.20
2019-02-28T21:38:03.563Z,7.30
2019-02-28T21:40:59.404Z,7.10
2019-02-28T21:46:58.651Z,6.60
2019-02-28T21:49:41.232Z,6.30
2019-02-28T21:52:43.469Z,6.40
2019-02-28T21:56:11.126Z,6.50
2019-02-28T21:59:11.558Z,6.70
2019-02-28T22:02:07.918Z,7.00
2019-02-28T22:04:53.370Z,7.50
2019-02-28T22:07:47.215Z,7.70
2019-02-28T22:10:37.082Z,7.70
2019-02-28T22:13:13.436Z,7.40
2019-02-28T22:16:02.894Z,7.10
2019-02-28T22:18:52.234Z,6.60
2019-02-28T22:21:56.432Z,6.20
2019-02-28T22:24:31.681Z,5.90
2019-02-28T22:27:12.074Z,5.90
2019-02-28T22:29:49.067Z,5.80
2019-02-28T22:32:34.210Z,5.80
2019-02-28T22:35:36.794Z,5.80
2019-02-28T22:38:22.548Z,5.70
2019-02-28T22:41:17.653Z,5.70
2019-02-28T22:44:03.311Z,5.50
2019-02-28T22:47:08.481Z,5.30
2019-02-28T22:50:13.621Z,5.10
2019-02-28T22:53:03.970Z,4.90
2019-02-28T22:55:43.313Z,4.90
2019-02-28T22:58:37.258Z,5.00
2019-02-28T23:01:28.645Z,5.20
2019-02-28T23:04:04.362Z,5.40
2019-02-28T23:06:43.033Z,5.60
2019-02-28T23:09:24.536Z,5.60
2019-02-28T23:12:04.886Z,5.90
2019-02-28T23:14:47.447Z,6.50
2019-02-28T23:17:22.322Z,6.70
2019-02-28T23:20:07.476Z,6.70
2019-02-28T23:23:03.052Z,6.50
2019-02-28T23:25:40.058Z,6.20
2019-02-28T23:28:29.068Z,6.10
2019-02-28T23:32:14.905Z,6.20
2019-02-28T23:35:02.518Z,6.10
2019-02-28T23:37:48.198Z,5.90
2019-02-28T23:40:31.808Z,6.10
2019-02-28T23:43:26.074Z,5.80
2019-02-28T23:46:13.913Z,5.70
2019-02-28T23:51:52.688Z,5.90
2019-02-28T23:54:23.844Z,6.10
2019-02-28T23:57:00.629Z,6.00
2019-02-28T23:59:49.575Z,6.30
